Terminal Aerodrome Forecast
Issued by NWS Tuscon, AZ

Home | Current Version | Previous Version | Text Only | Print | Product List | Glossary On
Versions: 1 2 3 4 5 6 7 8 9 10 11 12 13 14 15 16 17 18 19 20 21
000
FTUS45 KTWC 311732
TAFTUS
TAF
KTUS 311732Z 3118/0118 13008KT P6SM FEW100 SCT150
     FM312100 27011KT P6SM VCTS SCT070CB BKN100
     FM010200 20008KT P6SM BKN070 OVC100
     FM010700 14007KT P6SM SCT100 BKN200=

USA.gov is the U.S. government's official web portal to all federal, state and local government web resources and services.